Terminal Aerodrome Forecast
Issued by NWS

Home | Current Version | Previous Version | Text Only | Print | Product List | Glossary On
Versions: 1 2 3 4 5 6 7 8 9 10 11 12 13 14 15 16 17 18 19 20 21 22 23 24 25 26 27 28 29 30 31 32 33 34 35 36 37 38 39 40 41 42 43 44 45 46 47 48 49 50
000
FTUS45 KGJT 290223 AAC
TAFTEX
TAF AMD
KTEX 290223Z 2902/2924 25004KT P6SM VCSH SCT070 SCT080 OVC090
      TEMPO 2902/2903 VRB10G15KT 3SM -SHSN BKN030 OVC050
     FM290600 16009KT P6SM VCSH BKN060
     FM291800 26011G19KT P6SM -SHSN OVC030
     FM292200 30013G21KT P6SM VCSH OVC050=

USA.gov is the U.S. government's official web portal to all federal, state and local government web resources and services.